sensor_id;sensor_type;location;lat;lon;timestamp;temperature;humidity
35363;DHT22;21463;47.480;8.214;2023-05-08T00:00:32;21.00;59.10
35363;DHT22;21463;47.480;8.214;2023-05-08T00:01:35;21.00;59.10
35363;DHT22;21463;47.480;8.214;2023-05-08T00:02:39;21.00;59.00
35363;DHT22;21463;47.480;8.214;2023-05-08T00:03:42;21.00;59.00
35363;DHT22;21463;47.480;8.214;2023-05-08T00:04:47;21.50;59.40
35363;DHT22;21463;47.480;8.214;2023-05-08T00:05:50;21.00;59.00
35363;DHT22;21463;47.480;8.214;2023-05-08T00:06:52;21.10;59.10
35363;DHT22;21463;47.480;8.214;2023-05-08T00:07:57;21.00;59.00
35363;DHT22;21463;47.480;8.214;2023-05-08T00:09:02;21.00;59.00
35363;DHT22;21463;47.480;8.214;2023-05-08T00:10:06;21.00;59.10
35363;DHT22;21463;47.480;8.214;2023-05-08T00:11:12;21.00;59.00
35363;DHT22;21463;47.480;8.214;2023-05-08T00:12:14;21.00;59.10
35363;DHT22;21463;47.480;8.214;2023-05-08T00:13:17;20.90;59.00
35363;DHT22;21463;47.480;8.214;2023-05-08T00:14:20;21.00;59.00
35363;DHT22;21463;47.480;8.214;2023-05-08T00:15:22;21.00;59.00
35363;DHT22;21463;47.480;8.214;2023-05-08T00:16:24;21.00;59.00
35363;DHT22;21463;47.480;8.214;2023-05-08T00:17:29;21.00;59.00
35363;DHT22;21463;47.480;8.214;2023-05-08T00:18:32;21.00;59.00
35363;DHT22;21463;47.480;8.214;2023-05-08T00:19:34;21.00;59.00
35363;DHT22;21463;47.480;8.214;2023-05-08T00:20:37;20.90;58.90
35363;DHT22;21463;47.480;8.214;2023-05-08T00:21:39;21.00;59.00
35363;DHT22;21463;47.480;8.214;2023-05-08T00:22:41;20.90;59.00
35363;DHT22;21463;47.480;8.214;2023-05-08T00:23:44;21.00;59.00
35363;DHT22;21463;47.480;8.214;2023-05-08T00:24:47;21.00;59.00
35363;DHT22;21463;47.480;8.214;2023-05-08T00:25:49;21.00;59.00
35363;DHT22;21463;47.480;8.214;2023-05-08T00:26:52;21.00;59.00
35363;DHT22;21463;47.480;8.214;2023-05-08T00:27:56;21.00;59.00
35363;DHT22;21463;47.480;8.214;2023-05-08T00:28:58;21.00;59.00
35363;DHT22;21463;47.480;8.214;2023-05-08T00:30:00;20.90;58.90
35363;DHT22;21463;47.480;8.214;2023-05-08T00:31:04;21.00;59.00
35363;DHT22;21463;47.480;8.214;2023-05-08T00:32:08;21.00;59.00
35363;DHT22;21463;47.480;8.214;2023-05-08T00:33:10;21.00;59.00
35363;DHT22;21463;47.480;8.214;2023-05-08T00:34:13;21.00;59.00
35363;DHT22;21463;47.480;8.214;2023-05-08T00:35:16;21.00;59.00
35363;DHT22;21463;47.480;8.214;2023-05-08T00:36:19;21.00;59.00
35363;DHT22;21463;47.480;8.214;2023-05-08T00:37:22;21.00;59.00
35363;DHT22;21463;47.480;8.214;2023-05-08T00:38:25;21.00;59.00
35363;DHT22;21463;47.480;8.214;2023-05-08T00:39:29;21.00;59.00
35363;DHT22;21463;47.480;8.214;2023-05-08T00:40:31;21.00;59.00
35363;DHT22;21463;47.480;8.214;2023-05-08T00:41:34;21.00;59.00
35363;DHT22;21463;47.480;8.214;2023-05-08T00:42:36;21.00;59.00
35363;DHT22;21463;47.480;8.214;2023-05-08T00:43:39;21.00;59.00
35363;DHT22;21463;47.480;8.214;2023-05-08T00:44:41;21.00;59.00
35363;DHT22;21463;47.480;8.214;2023-05-08T00:45:44;21.00;59.00
35363;DHT22;21463;47.480;8.214;2023-05-08T00:46:47;20.90;58.90
35363;DHT22;21463;47.480;8.214;2023-05-08T00:47:51;20.90;58.90
35363;DHT22;21463;47.480;8.214;2023-05-08T00:48:54;20.80;58.90
35363;DHT22;21463;47.480;8.214;2023-05-08T00:49:58;21.00;59.00
35363;DHT22;21463;47.480;8.214;2023-05-08T00:51:02;21.40;59.20
35363;DHT22;21463;47.480;8.214;2023-05-08T00:52:05;21.00;59.00
35363;DHT22;21463;47.480;8.214;2023-05-08T00:53:11;20.90;58.90
35363;DHT22;21463;47.480;8.214;2023-05-08T00:54:14;21.00;59.00
35363;DHT22;21463;47.480;8.214;2023-05-08T00:55:16;21.00;59.00
35363;DHT22;21463;47.480;8.214;2023-05-08T00:56:20;21.00;59.00
35363;DHT22;21463;47.480;8.214;2023-05-08T00:57:23;21.00;59.00
35363;DHT22;21463;47.480;8.214;2023-05-08T00:58:26;21.00;59.00
35363;DHT22;21463;47.480;8.214;2023-05-08T00:59:29;20.90;58.90
35363;DHT22;21463;47.480;8.214;2023-05-08T01:00:31;21.00;59.00
35363;DHT22;21463;47.480;8.214;2023-05-08T01:01:37;21.00;59.00
35363;DHT22;21463;47.480;8.214;2023-05-08T01:02:39;21.00;59.00
35363;DHT22;21463;47.480;8.214;2023-05-08T01:03:42;20.90;58.90
35363;DHT22;21463;47.480;8.214;2023-05-08T01:04:46;20.90;58.90
35363;DHT22;21463;47.480;8.214;2023-05-08T01:05:50;21.00;59.00
35363;DHT22;21463;47.480;8.214;2023-05-08T01:06:52;20.90;58.90
35363;DHT22;21463;47.480;8.214;2023-05-08T01:07:55;20.90;58.90
35363;DHT22;21463;47.480;8.214;2023-05-08T01:08:57;21.00;59.00
35363;DHT22;21463;47.480;8.214;2023-05-08T01:10:00;21.00;59.00
35363;DHT22;21463;47.480;8.214;2023-05-08T01:13:31;20.90;58.90
35363;DHT22;21463;47.480;8.214;2023-05-08T01:15:45;21.00;58.90
35363;DHT22;21463;47.480;8.214;2023-05-08T01:17:09;20.90;58.90
35363;DHT22;21463;47.480;8.214;2023-05-08T01:18:20;21.00;59.00
35363;DHT22;21463;47.480;8.214;2023-05-08T01:21:02;21.00;58.90
35363;DHT22;21463;47.480;8.214;2023-05-08T01:24:18;21.00;59.00
35363;DHT22;21463;47.480;8.214;2023-05-08T01:27:08;21.00;59.00
35363;DHT22;21463;47.480;8.214;2023-05-08T01:28:37;21.00;58.90
35363;DHT22;21463;47.480;8.214;2023-05-08T01:29:55;21.00;58.90
35363;DHT22;21463;47.480;8.214;2023-05-08T01:32:31;21.00;58.90
35363;DHT22;21463;47.480;8.214;2023-05-08T01:35:51;21.00;59.00
35363;DHT22;21463;47.480;8.214;2023-05-08T01:37:00;21.00;59.00
35363;DHT22;21463;47.480;8.214;2023-05-08T01:38:18;20.90;58.90
35363;DHT22;21463;47.480;8.214;2023-05-08T01:40:51;21.00;59.00
35363;DHT22;21463;47.480;8.214;2023-05-08T01:43:05;21.00;58.90
35363;DHT22;21463;47.480;8.214;2023-05-08T01:45:15;20.90;58.90
35363;DHT22;21463;47.480;8.214;2023-05-08T01:46:21;20.90;58.90
35363;DHT22;21463;47.480;8.214;2023-05-08T01:47:29;21.00;59.00
35363;DHT22;21463;47.480;8.214;2023-05-08T01:48:38;21.00;58.90
35363;DHT22;21463;47.480;8.214;2023-05-08T01:49:46;21.00;59.00
35363;DHT22;21463;47.480;8.214;2023-05-08T01:50:51;21.00;58.90
35363;DHT22;21463;47.480;8.214;2023-05-08T01:51:57;21.00;58.90
35363;DHT22;21463;47.480;8.214;2023-05-08T01:53:02;21.00;58.90
35363;DHT22;21463;47.480;8.214;2023-05-08T01:54:07;21.00;58.90
35363;DHT22;21463;47.480;8.214;2023-05-08T01:55:13;21.00;58.90
35363;DHT22;21463;47.480;8.214;2023-05-08T01:56:19;21.00;58.90
35363;DHT22;21463;47.480;8.214;2023-05-08T01:57:23;20.90;58.90
35363;DHT22;21463;47.480;8.214;2023-05-08T01:58:29;21.00;58.90
35363;DHT22;21463;47.480;8.214;2023-05-08T01:59:33;21.00;58.90
35363;DHT22;21463;47.480;8.214;2023-05-08T02:00:38;20.90;58.80
35363;DHT22;21463;47.480;8.214;2023-05-08T02:01:41;21.00;58.90
35363;DHT22;21463;47.480;8.214;2023-05-08T02:02:46;21.00;58.90
35363;DHT22;21463;47.480;8.214;2023-05-08T02:03:49;21.00;58.90
35363;DHT22;21463;47.480;8.214;2023-05-08T02:04:53;21.00;58.90
35363;DHT22;21463;47.480;8.214;2023-05-08T02:05:56;21.00;58.90
35363;DHT22;21463;47.480;8.214;2023-05-08T02:07:00;21.00;58.90
35363;DHT22;21463;47.480;8.214;2023-05-08T02:08:03;21.00;58.90
35363;DHT22;21463;47.480;8.214;2023-05-08T02:09:06;21.00;58.90
35363;DHT22;21463;47.480;8.214;2023-05-08T02:10:11;21.00;58.90
35363;DHT22;21463;47.480;8.214;2023-05-08T02:11:15;21.00;58.80
35363;DHT22;21463;47.480;8.214;2023-05-08T02:12:17;21.00;58.90
35363;DHT22;21463;47.480;8.214;2023-05-08T02:13:23;21.00;58.80
35363;DHT22;21463;47.480;8.214;2023-05-08T02:14:26;20.90;58.80
35363;DHT22;21463;47.480;8.214;2023-05-08T02:15:29;21.00;58.90
35363;DHT22;21463;47.480;8.214;2023-05-08T02:16:36;20.90;58.80
35363;DHT22;21463;47.480;8.214;2023-05-08T02:17:42;21.00;58.80
35363;DHT22;21463;47.480;8.214;2023-05-08T02:18:48;21.00;58.80
35363;DHT22;21463;47.480;8.214;2023-05-08T02:19:52;20.90;58.80
35363;DHT22;21463;47.480;8.214;2023-05-08T02:20:55;21.00;58.80
35363;DHT22;21463;47.480;8.214;2023-05-08T02:22:00;20.90;58.80
35363;DHT22;21463;47.480;8.214;2023-05-08T02:23:04;21.00;58.90
35363;DHT22;21463;47.480;8.214;2023-05-08T02:24:08;21.00;58.90
35363;DHT22;21463;47.480;8.214;2023-05-08T02:25:12;21.00;58.80
35363;DHT22;21463;47.480;8.214;2023-05-08T02:26:17;21.00;58.80
35363;DHT22;21463;47.480;8.214;2023-05-08T02:27:20;21.00;58.80
35363;DHT22;21463;47.480;8.214;2023-05-08T02:28:24;21.00;58.80
35363;DHT22;21463;47.480;8.214;2023-05-08T02:29:27;21.00;58.80
35363;DHT22;21463;47.480;8.214;2023-05-08T02:30:30;20.90;58.80
35363;DHT22;21463;47.480;8.214;2023-05-08T02:31:34;21.00;58.80
35363;DHT22;21463;47.480;8.214;2023-05-08T02:32:36;21.00;58.80
35363;DHT22;21463;47.480;8.214;2023-05-08T02:33:40;21.00;58.80
35363;DHT22;21463;47.480;8.214;2023-05-08T02:34:43;20.90;58.80
35363;DHT22;21463;47.480;8.214;2023-05-08T02:36:04;20.90;58.80
35363;DHT22;21463;47.480;8.214;2023-05-08T02:37:07;21.00;58.80
35363;DHT22;21463;47.480;8.214;2023-05-08T02:38:11;21.00;58.90
35363;DHT22;21463;47.480;8.214;2023-05-08T02:39:14;20.90;58.80
35363;DHT22;21463;47.480;8.214;2023-05-08T02:40:19;21.00;58.80
35363;DHT22;21463;47.480;8.214;2023-05-08T02:41:23;21.00;58.80
35363;DHT22;21463;47.480;8.214;2023-05-08T02:42:28;20.90;58.80
35363;DHT22;21463;47.480;8.214;2023-05-08T02:43:30;20.90;58.70
35363;DHT22;21463;47.480;8.214;2023-05-08T02:44:33;21.00;58.80
35363;DHT22;21463;47.480;8.214;2023-05-08T02:45:58;20.90;58.80
35363;DHT22;21463;47.480;8.214;2023-05-08T02:47:04;21.00;58.80
35363;DHT22;21463;47.480;8.214;2023-05-08T02:48:11;21.00;58.80
35363;DHT22;21463;47.480;8.214;2023-05-08T02:49:24;21.00;58.80
35363;DHT22;21463;47.480;8.214;2023-05-08T02:50:33;21.00;58.80
35363;DHT22;21463;47.480;8.214;2023-05-08T02:51:52;21.00;58.80
35363;DHT22;21463;47.480;8.214;2023-05-08T02:53:01;20.90;58.70
35363;DHT22;21463;47.480;8.214;2023-05-08T02:54:08;21.00;58.80
35363;DHT22;21463;47.480;8.214;2023-05-08T02:56:37;20.90;58.70
35363;DHT22;21463;47.480;8.214;2023-05-08T02:58:48;20.60;58.60
35363;DHT22;21463;47.480;8.214;2023-05-08T03:00:01;21.70;59.20
35363;DHT22;21463;47.480;8.214;2023-05-08T03:01:08;21.00;58.80
35363;DHT22;21463;47.480;8.214;2023-05-08T03:02:15;21.00;58.80
35363;DHT22;21463;47.480;8.214;2023-05-08T03:03:23;21.00;58.80
35363;DHT22;21463;47.480;8.214;2023-05-08T03:04:36;20.90;58.70
35363;DHT22;21463;47.480;8.214;2023-05-08T03:05:42;21.00;58.80
35363;DHT22;21463;47.480;8.214;2023-05-08T03:06:46;21.00;58.80
35363;DHT22;21463;47.480;8.214;2023-05-08T03:07:49;20.90;58.70
35363;DHT22;21463;47.480;8.214;2023-05-08T03:08:54;21.00;58.70
35363;DHT22;21463;47.480;8.214;2023-05-08T03:10:02;21.00;58.70
35363;DHT22;21463;47.480;8.214;2023-05-08T03:11:18;21.70;59.10
35363;DHT22;21463;47.480;8.214;2023-05-08T03:12:23;21.00;58.70
35363;DHT22;21463;47.480;8.214;2023-05-08T03:13:27;20.80;58.60
35363;DHT22;21463;47.480;8.214;2023-05-08T03:14:31;20.90;58.70
35363;DHT22;21463;47.480;8.214;2023-05-08T03:15:39;21.00;58.70
35363;DHT22;21463;47.480;8.214;2023-05-08T03:16:43;21.00;58.70
35363;DHT22;21463;47.480;8.214;2023-05-08T03:17:47;21.00;58.70
35363;DHT22;21463;47.480;8.214;2023-05-08T03:18:51;20.80;59.20
35363;DHT22;21463;47.480;8.214;2023-05-08T03:19:55;21.00;58.70
35363;DHT22;21463;47.480;8.214;2023-05-08T03:20:59;20.90;58.60
35363;DHT22;21463;47.480;8.214;2023-05-08T03:22:02;21.00;58.70
35363;DHT22;21463;47.480;8.214;2023-05-08T03:23:07;21.00;58.70
35363;DHT22;21463;47.480;8.214;2023-05-08T03:24:10;21.00;58.70
35363;DHT22;21463;47.480;8.214;2023-05-08T03:25:13;21.00;58.70
35363;DHT22;21463;47.480;8.214;2023-05-08T03:26:18;21.00;58.70
35363;DHT22;21463;47.480;8.214;2023-05-08T03:27:21;21.00;58.70
35363;DHT22;21463;47.480;8.214;2023-05-08T03:28:25;20.90;58.70
35363;DHT22;21463;47.480;8.214;2023-05-08T03:29:30;21.00;58.70
35363;DHT22;21463;47.480;8.214;2023-05-08T03:30:35;20.90;58.60
35363;DHT22;21463;47.480;8.214;2023-05-08T03:31:42;20.90;58.70
35363;DHT22;21463;47.480;8.214;2023-05-08T03:32:45;20.90;58.60
35363;DHT22;21463;47.480;8.214;2023-05-08T03:33:49;20.90;58.60
35363;DHT22;21463;47.480;8.214;2023-05-08T03:34:54;21.00;58.70
35363;DHT22;21463;47.480;8.214;2023-05-08T03:35:57;20.90;58.60
35363;DHT22;21463;47.480;8.214;2023-05-08T03:37:03;20.90;58.60
35363;DHT22;21463;47.480;8.214;2023-05-08T03:38:05;21.00;58.70
35363;DHT22;21463;47.480;8.214;2023-05-08T03:39:09;20.90;58.70
35363;DHT22;21463;47.480;8.214;2023-05-08T03:40:11;20.90;58.60
35363;DHT22;21463;47.480;8.214;2023-05-08T03:41:15;20.90;58.60
35363;DHT22;21463;47.480;8.214;2023-05-08T03:42:18;20.90;58.60
35363;DHT22;21463;47.480;8.214;2023-05-08T03:43:23;20.90;58.60
35363;DHT22;21463;47.480;8.214;2023-05-08T03:44:27;20.90;58.60
35363;DHT22;21463;47.480;8.214;2023-05-08T03:45:30;21.00;58.70
35363;DHT22;21463;47.480;8.214;2023-05-08T03:46:35;21.00;58.70
35363;DHT22;21463;47.480;8.214;2023-05-08T03:47:39;21.00;58.60
35363;DHT22;21463;47.480;8.214;2023-05-08T03:48:43;20.90;58.60
35363;DHT22;21463;47.480;8.214;2023-05-08T03:49:48;21.00;58.60
35363;DHT22;21463;47.480;8.214;2023-05-08T03:50:51;21.00;58.60
35363;DHT22;21463;47.480;8.214;2023-05-08T03:51:55;21.00;58.60
35363;DHT22;21463;47.480;8.214;2023-05-08T03:52:57;20.90;58.60
35363;DHT22;21463;47.480;8.214;2023-05-08T03:54:00;21.00;58.60
35363;DHT22;21463;47.480;8.214;2023-05-08T03:55:03;21.00;58.60
35363;DHT22;21463;47.480;8.214;2023-05-08T03:56:05;21.00;58.60
35363;DHT22;21463;47.480;8.214;2023-05-08T03:57:08;21.00;58.60
35363;DHT22;21463;47.480;8.214;2023-05-08T03:58:16;20.90;59.20
35363;DHT22;21463;47.480;8.214;2023-05-08T04:01:04;21.00;58.60
35363;DHT22;21463;47.480;8.214;2023-05-08T04:02:11;21.00;58.60
35363;DHT22;21463;47.480;8.214;2023-05-08T04:03:17;21.30;58.80
35363;DHT22;21463;47.480;8.214;2023-05-08T04:04:46;20.90;58.60
35363;DHT22;21463;47.480;8.214;2023-05-08T04:06:13;21.00;58.60
35363;DHT22;21463;47.480;8.214;2023-05-08T04:08:41;21.00;58.60
35363;DHT22;21463;47.480;8.214;2023-05-08T04:11:14;21.00;58.60
35363;DHT22;21463;47.480;8.214;2023-05-08T04:12:28;21.00;58.60
35363;DHT22;21463;47.480;8.214;2023-05-08T04:13:35;20.90;58.60
35363;DHT22;21463;47.480;8.214;2023-05-08T04:14:41;21.00;58.60
35363;DHT22;21463;47.480;8.214;2023-05-08T04:15:48;21.00;58.60
35363;DHT22;21463;47.480;8.214;2023-05-08T04:16:52;20.90;58.60
35363;DHT22;21463;47.480;8.214;2023-05-08T04:18:03;21.00;58.60
35363;DHT22;21463;47.480;8.214;2023-05-08T04:19:10;21.00;58.60
35363;DHT22;21463;47.480;8.214;2023-05-08T04:20:18;21.00;58.60
35363;DHT22;21463;47.480;8.214;2023-05-08T04:21:22;21.00;58.60
35363;DHT22;21463;47.480;8.214;2023-05-08T04:22:27;21.00;58.60
35363;DHT22;21463;47.480;8.214;2023-05-08T04:23:30;20.90;58.50
35363;DHT22;21463;47.480;8.214;2023-05-08T04:24:36;21.00;58.60
35363;DHT22;21463;47.480;8.214;2023-05-08T04:25:40;21.00;58.60
35363;DHT22;21463;47.480;8.214;2023-05-08T04:26:43;20.90;58.50
35363;DHT22;21463;47.480;8.214;2023-05-08T04:27:49;20.90;58.50
35363;DHT22;21463;47.480;8.214;2023-05-08T04:28:53;21.00;58.60
35363;DHT22;21463;47.480;8.214;2023-05-08T04:29:55;21.00;58.60
35363;DHT22;21463;47.480;8.214;2023-05-08T04:30:58;20.90;58.50
35363;DHT22;21463;47.480;8.214;2023-05-08T04:32:03;21.00;58.60
35363;DHT22;21463;47.480;8.214;2023-05-08T04:33:07;20.90;58.50
35363;DHT22;21463;47.480;8.214;2023-05-08T04:34:10;21.00;58.60
35363;DHT22;21463;47.480;8.214;2023-05-08T04:35:13;21.00;58.60
35363;DHT22;21463;47.480;8.214;2023-05-08T04:36:16;21.00;58.60
35363;DHT22;21463;47.480;8.214;2023-05-08T04:37:26;21.00;58.60
35363;DHT22;21463;47.480;8.214;2023-05-08T04:38:35;21.00;58.60
35363;DHT22;21463;47.480;8.214;2023-05-08T04:39:37;21.00;58.60
35363;DHT22;21463;47.480;8.214;2023-05-08T04:40:40;20.90;58.50
35363;DHT22;21463;47.480;8.214;2023-05-08T04:41:44;21.00;58.60
35363;DHT22;21463;47.480;8.214;2023-05-08T04:42:50;20.90;58.50
35363;DHT22;21463;47.480;8.214;2023-05-08T04:43:53;21.00;58.60
35363;DHT22;21463;47.480;8.214;2023-05-08T04:44:56;20.90;58.50
35363;DHT22;21463;47.480;8.214;2023-05-08T04:45:58;21.00;58.60
35363;DHT22;21463;47.480;8.214;2023-05-08T04:47:01;21.00;58.60
35363;DHT22;21463;47.480;8.214;2023-05-08T04:48:03;21.00;58.60
35363;DHT22;21463;47.480;8.214;2023-05-08T04:49:06;20.90;58.50
35363;DHT22;21463;47.480;8.214;2023-05-08T04:50:08;21.00;58.60
35363;DHT22;21463;47.480;8.214;2023-05-08T04:51:11;20.90;58.50
35363;DHT22;21463;47.480;8.214;2023-05-08T04:52:13;21.00;58.60
35363;DHT22;21463;47.480;8.214;2023-05-08T04:53:15;21.00;58.60
35363;DHT22;21463;47.480;8.214;2023-05-08T04:54:19;21.00;58.50
35363;DHT22;21463;47.480;8.214;2023-05-08T04:55:21;21.00;58.50
35363;DHT22;21463;47.480;8.214;2023-05-08T04:56:24;20.90;58.50
35363;DHT22;21463;47.480;8.214;2023-05-08T04:57:28;21.00;58.60
35363;DHT22;21463;47.480;8.214;2023-05-08T04:58:31;20.90;58.50
35363;DHT22;21463;47.480;8.214;2023-05-08T04:59:34;20.90;58.50
35363;DHT22;21463;47.480;8.214;2023-05-08T05:00:37;20.90;58.50
35363;DHT22;21463;47.480;8.214;2023-05-08T05:01:39;21.00;58.50
35363;DHT22;21463;47.480;8.214;2023-05-08T05:02:43;20.90;58.50
35363;DHT22;21463;47.480;8.214;2023-05-08T05:03:45;20.90;58.50
35363;DHT22;21463;47.480;8.214;2023-05-08T05:04:47;20.90;58.50
35363;DHT22;21463;47.480;8.214;2023-05-08T05:05:56;21.00;58.50
35363;DHT22;21463;47.480;8.214;2023-05-08T05:06:58;21.00;58.50
35363;DHT22;21463;47.480;8.214;2023-05-08T05:08:02;20.90;58.50
35363;DHT22;21463;47.480;8.214;2023-05-08T05:09:05;20.90;58.50
35363;DHT22;21463;47.480;8.214;2023-05-08T05:10:08;21.00;58.50
35363;DHT22;21463;47.480;8.214;2023-05-08T05:11:10;20.90;58.50
35363;DHT22;21463;47.480;8.214;2023-05-08T05:12:12;20.70;58.40
35363;DHT22;21463;47.480;8.214;2023-05-08T05:13:15;21.00;58.50
35363;DHT22;21463;47.480;8.214;2023-05-08T05:14:17;21.00;58.60
35363;DHT22;21463;47.480;8.214;2023-05-08T05:15:20;21.00;58.60
35363;DHT22;21463;47.480;8.214;2023-05-08T05:16:23;20.90;58.50
35363;DHT22;21463;47.480;8.214;2023-05-08T05:17:26;20.90;58.50
35363;DHT22;21463;47.480;8.214;2023-05-08T05:18:28;21.00;58.50
35363;DHT22;21463;47.480;8.214;2023-05-08T05:19:31;20.90;58.50
35363;DHT22;21463;47.480;8.214;2023-05-08T05:20:33;21.00;58.50
35363;DHT22;21463;47.480;8.214;2023-05-08T05:21:37;20.90;58.50
35363;DHT22;21463;47.480;8.214;2023-05-08T05:22:40;20.90;58.40
35363;DHT22;21463;47.480;8.214;2023-05-08T05:23:44;21.00;58.50
35363;DHT22;21463;47.480;8.214;2023-05-08T05:24:47;21.00;58.50
35363;DHT22;21463;47.480;8.214;2023-05-08T05:25:49;20.90;58.50
35363;DHT22;21463;47.480;8.214;2023-05-08T05:26:51;20.90;58.50
35363;DHT22;21463;47.480;8.214;2023-05-08T05:27:54;20.90;58.50
35363;DHT22;21463;47.480;8.214;2023-05-08T05:28:56;21.00;58.50
35363;DHT22;21463;47.480;8.214;2023-05-08T05:29:59;21.00;58.50
35363;DHT22;21463;47.480;8.214;2023-05-08T05:31:01;20.90;58.40
35363;DHT22;21463;47.480;8.214;2023-05-08T05:32:04;21.00;58.50
35363;DHT22;21463;47.480;8.214;2023-05-08T05:33:08;21.00;58.50
35363;DHT22;21463;47.480;8.214;2023-05-08T05:34:11;21.00;58.50
35363;DHT22;21463;47.480;8.214;2023-05-08T05:35:14;20.90;58.40
35363;DHT22;21463;47.480;8.214;2023-05-08T05:36:16;20.90;58.40
35363;DHT22;21463;47.480;8.214;2023-05-08T05:37:19;20.90;58.40
35363;DHT22;21463;47.480;8.214;2023-05-08T05:38:21;20.90;58.40
35363;DHT22;21463;47.480;8.214;2023-05-08T05:39:24;20.90;58.40
35363;DHT22;21463;47.480;8.214;2023-05-08T05:40:26;20.90;58.40
35363;DHT22;21463;47.480;8.214;2023-05-08T05:41:29;20.90;58.40
35363;DHT22;21463;47.480;8.214;2023-05-08T05:42:31;21.00;58.50
35363;DHT22;21463;47.480;8.214;2023-05-08T05:43:34;21.00;58.50
35363;DHT22;21463;47.480;8.214;2023-05-08T05:44:37;21.00;58.50
35363;DHT22;21463;47.480;8.214;2023-05-08T05:45:39;20.90;58.40
35363;DHT22;21463;47.480;8.214;2023-05-08T05:46:44;20.90;58.40
35363;DHT22;21463;47.480;8.214;2023-05-08T05:47:48;21.00;58.50
35363;DHT22;21463;47.480;8.214;2023-05-08T05:48:53;20.90;58.40
35363;DHT22;21463;47.480;8.214;2023-05-08T05:49:56;21.00;58.50
35363;DHT22;21463;47.480;8.214;2023-05-08T05:50:58;21.00;58.50
35363;DHT22;21463;47.480;8.214;2023-05-08T05:52:00;20.90;58.50
35363;DHT22;21463;47.480;8.214;2023-05-08T05:53:03;21.00;58.50
35363;DHT22;21463;47.480;8.214;2023-05-08T05:54:05;21.00;58.50
35363;DHT22;21463;47.480;8.214;2023-05-08T05:55:08;20.90;58.60
35363;DHT22;21463;47.480;8.214;2023-05-08T05:56:11;21.00;58.60
35363;DHT22;21463;47.480;8.214;2023-05-08T05:57:13;21.00;58.60
35363;DHT22;21463;47.480;8.214;2023-05-08T05:58:17;21.00;58.60
35363;DHT22;21463;47.480;8.214;2023-05-08T05:59:20;21.00;58.60
35363;DHT22;21463;47.480;8.214;2023-05-08T06:00:23;21.00;58.60
35363;DHT22;21463;47.480;8.214;2023-05-08T06:01:29;21.00;58.60
35363;DHT22;21463;47.480;8.214;2023-05-08T06:02:31;21.00;58.60
35363;DHT22;21463;47.480;8.214;2023-05-08T06:03:38;21.00;58.60
35363;DHT22;21463;47.480;8.214;2023-05-08T06:04:41;21.00;58.60
35363;DHT22;21463;47.480;8.214;2023-05-08T06:05:45;21.00;58.60
35363;DHT22;21463;47.480;8.214;2023-05-08T06:06:48;20.90;58.50
35363;DHT22;21463;47.480;8.214;2023-05-08T06:07:52;21.00;58.60
35363;DHT22;21463;47.480;8.214;2023-05-08T06:08:55;21.20;58.70
35363;DHT22;21463;47.480;8.214;2023-05-08T06:09:57;21.00;58.60
35363;DHT22;21463;47.480;8.214;2023-05-08T06:11:00;21.00;58.60
35363;DHT22;21463;47.480;8.214;2023-05-08T06:12:03;21.00;58.60
35363;DHT22;21463;47.480;8.214;2023-05-08T06:13:05;21.00;58.50
35363;DHT22;21463;47.480;8.214;2023-05-08T06:14:11;20.90;58.60
35363;DHT22;21463;47.480;8.214;2023-05-08T06:15:17;21.00;58.60
35363;DHT22;21463;47.480;8.214;2023-05-08T06:16:22;21.00;58.60
35363;DHT22;21463;47.480;8.214;2023-05-08T06:17:26;20.90;58.60
35363;DHT22;21463;47.480;8.214;2023-05-08T06:18:30;21.10;58.60
35363;DHT22;21463;47.480;8.214;2023-05-08T06:19:34;21.00;58.60
35363;DHT22;21463;47.480;8.214;2023-05-08T06:20:39;21.00;58.60
35363;DHT22;21463;47.480;8.214;2023-05-08T06:21:43;21.00;58.60
35363;DHT22;21463;47.480;8.214;2023-05-08T06:22:45;21.00;58.80
35363;DHT22;21463;47.480;8.214;2023-05-08T06:23:54;21.70;59.20
35363;DHT22;21463;47.480;8.214;2023-05-08T06:24:56;21.00;58.80
35363;DHT22;21463;47.480;8.214;2023-05-08T06:25:58;21.00;58.90
35363;DHT22;21463;47.480;8.214;2023-05-08T06:27:01;21.00;58.90
35363;DHT22;21463;47.480;8.214;2023-05-08T06:28:04;21.00;58.90
35363;DHT22;21463;47.480;8.214;2023-05-08T06:29:09;21.00;59.20
35363;DHT22;21463;47.480;8.214;2023-05-08T06:30:12;21.00;59.10
35363;DHT22;21463;47.480;8.214;2023-05-08T06:31:16;21.00;59.00
35363;DHT22;21463;47.480;8.214;2023-05-08T06:32:18;21.00;59.00
35363;DHT22;21463;47.480;8.214;2023-05-08T06:33:20;21.00;59.10
35363;DHT22;21463;47.480;8.214;2023-05-08T06:34:26;21.00;59.10
35363;DHT22;21463;47.480;8.214;2023-05-08T06:35:34;21.00;59.00
35363;DHT22;21463;47.480;8.214;2023-05-08T06:36:38;21.00;59.00
35363;DHT22;21463;47.480;8.214;2023-05-08T06:37:41;21.00;59.10
35363;DHT22;21463;47.480;8.214;2023-05-08T06:38:48;21.00;59.00
35363;DHT22;21463;47.480;8.214;2023-05-08T06:39:51;21.00;59.10
35363;DHT22;21463;47.480;8.214;2023-05-08T06:41:11;21.00;59.10
35363;DHT22;21463;47.480;8.214;2023-05-08T06:42:16;21.00;59.00
35363;DHT22;21463;47.480;8.214;2023-05-08T06:43:20;21.00;59.00
35363;DHT22;21463;47.480;8.214;2023-05-08T06:44:22;21.10;59.20
35363;DHT22;21463;47.480;8.214;2023-05-08T06:45:25;21.00;58.90
35363;DHT22;21463;47.480;8.214;2023-05-08T06:46:28;21.00;59.10
35363;DHT22;21463;47.480;8.214;2023-05-08T06:47:31;21.10;59.10
35363;DHT22;21463;47.480;8.214;2023-05-08T06:48:34;21.10;59.00
35363;DHT22;21463;47.480;8.214;2023-05-08T06:49:37;21.10;59.00
35363;DHT22;21463;47.480;8.214;2023-05-08T06:50:39;21.10;59.10
35363;DHT22;21463;47.480;8.214;2023-05-08T06:51:43;21.00;59.00
35363;DHT22;21463;47.480;8.214;2023-05-08T06:52:46;21.10;59.10
35363;DHT22;21463;47.480;8.214;2023-05-08T06:53:48;21.10;59.00
35363;DHT22;21463;47.480;8.214;2023-05-08T06:54:52;21.00;59.00
35363;DHT22;21463;47.480;8.214;2023-05-08T06:55:55;21.10;59.10
35363;DHT22;21463;47.480;8.214;2023-05-08T06:57:00;21.10;59.00
35363;DHT22;21463;47.480;8.214;2023-05-08T06:58:03;21.00;59.00
35363;DHT22;21463;47.480;8.214;2023-05-08T06:59:07;21.20;59.10
35363;DHT22;21463;47.480;8.214;2023-05-08T07:00:10;21.10;59.10
35363;DHT22;21463;47.480;8.214;2023-05-08T07:01:13;21.10;59.10
35363;DHT22;21463;47.480;8.214;2023-05-08T07:02:16;21.10;59.10
35363;DHT22;21463;47.480;8.214;2023-05-08T07:03:18;21.10;59.00
35363;DHT22;21463;47.480;8.214;2023-05-08T07:04:23;21.10;59.00
35363;DHT22;21463;47.480;8.214;2023-05-08T07:05:25;21.10;59.00
35363;DHT22;21463;47.480;8.214;2023-05-08T07:06:28;21.10;59.00
35363;DHT22;21463;47.480;8.214;2023-05-08T07:07:32;21.10;59.00
35363;DHT22;21463;47.480;8.214;2023-05-08T07:08:34;21.10;59.00
35363;DHT22;21463;47.480;8.214;2023-05-08T07:09:37;21.20;59.00
35363;DHT22;21463;47.480;8.214;2023-05-08T07:10:39;21.20;59.00